createdAt,value
2019-02-18T00:00:46.448Z,28.63
2019-02-18T00:03:51.706Z,27.00
2019-02-18T00:06:56.906Z,27.27
2019-02-18T00:10:02.102Z,29.10
2019-02-18T00:13:07.319Z,27.37
2019-02-18T00:16:12.479Z,26.50
2019-02-18T00:19:17.765Z,26.33
2019-02-18T00:22:22.932Z,27.43
2019-02-18T00:25:28.064Z,29.90
2019-02-18T00:28:37.873Z,31.07
2019-02-18T00:31:43.071Z,31.90
2019-02-18T00:34:48.221Z,30.97
2019-02-18T00:37:53.417Z,28.47
2019-02-18T00:40:58.562Z,27.10
2019-02-18T00:44:03.750Z,27.27
2019-02-18T00:47:08.875Z,26.33
2019-02-18T00:50:14.021Z,26.37
2019-02-18T00:53:19.210Z,26.23
2019-02-18T00:56:24.375Z,27.13
2019-02-18T00:59:30.976Z,27.70
2019-02-18T01:02:36.177Z,28.97
2019-02-18T01:05:41.304Z,29.33
2019-02-18T01:08:46.475Z,28.10
2019-02-18T01:11:51.624Z,26.47
2019-02-18T01:14:56.982Z,28.83
2019-02-18T01:18:02.167Z,28.03
2019-02-18T01:21:07.551Z,28.80
2019-02-18T01:24:12.713Z,29.90
2019-02-18T01:27:17.866Z,29.10
2019-02-18T01:30:23.053Z,28.50
2019-02-18T01:33:28.230Z,26.90
2019-02-18T01:36:33.356Z,26.73
2019-02-18T01:39:38.469Z,25.33
2019-02-18T01:42:43.676Z,24.30
2019-02-18T01:45:48.838Z,24.57
2019-02-18T01:48:53.961Z,24.57
2019-02-18T01:51:59.107Z,23.13
2019-02-18T01:55:04.501Z,22.63
2019-02-18T01:58:09.663Z,22.73
2019-02-18T02:01:18.432Z,21.03
2019-02-18T02:04:23.697Z,21.87
2019-02-18T02:07:28.805Z,23.97
2019-02-18T02:10:34.155Z,23.97
2019-02-18T02:13:39.303Z,32.63
2019-02-18T02:16:44.564Z,35.87
2019-02-18T02:19:49.749Z,31.70
2019-02-18T02:22:55.010Z,27.60
2019-02-18T02:26:00.229Z,27.47
2019-02-18T02:29:05.436Z,24.17
2019-02-18T02:32:10.624Z,26.63
2019-02-18T02:35:15.896Z,24.13
2019-02-18T02:38:21.018Z,25.83
2019-02-18T02:41:26.261Z,27.47
2019-02-18T02:44:31.657Z,25.57
2019-02-18T02:47:36.828Z,22.37
2019-02-18T02:50:41.993Z,23.93
2019-02-18T02:53:47.162Z,23.70
2019-02-18T02:56:52.335Z,22.40
2019-02-18T02:59:57.575Z,23.23
2019-02-18T03:03:02.735Z,26.00
2019-02-18T03:06:08.003Z,26.00
2019-02-18T03:09:13.166Z,23.13
2019-02-18T03:12:18.337Z,25.60
2019-02-18T03:15:25.022Z,25.20
2019-02-18T03:18:30.279Z,25.37
2019-02-18T03:21:35.583Z,25.17
2019-02-18T03:25:16.277Z,27.60
2019-02-18T03:28:59.289Z,24.70
2019-02-18T03:32:04.478Z,25.77
2019-02-18T03:35:09.640Z,23.97
2019-02-18T03:38:14.858Z,23.93
2019-02-18T03:41:20.040Z,23.97
2019-02-18T03:44:25.317Z,27.10
2019-02-18T03:47:30.428Z,22.67
2019-02-18T03:50:35.637Z,25.63
2019-02-18T03:53:40.783Z,23.90
2019-02-18T03:56:46.059Z,23.60
2019-02-18T03:59:51.240Z,23.07
2019-02-18T04:02:56.408Z,23.63
2019-02-18T04:06:01.663Z,25.67
2019-02-18T04:09:07.290Z,25.57
2019-02-18T04:12:12.490Z,25.13
2019-02-18T04:15:17.640Z,27.03
2019-02-18T04:18:22.835Z,24.53
2019-02-18T04:21:28.056Z,27.90
2019-02-18T04:24:33.234Z,24.07
2019-02-18T04:27:38.423Z,23.63
2019-02-18T04:30:43.663Z,22.10
2019-02-18T04:33:48.837Z,24.27
2019-02-18T04:36:54.022Z,22.63
2019-02-18T04:39:59.148Z,23.50
2019-02-18T04:43:04.304Z,23.93
2019-02-18T04:46:09.520Z,23.30
2019-02-18T04:49:14.703Z,24.17
2019-02-18T04:52:19.904Z,20.73
2019-02-18T04:55:25.158Z,23.90
2019-02-18T04:58:30.375Z,23.73
2019-02-18T05:01:35.529Z,26.40
2019-02-18T05:04:40.658Z,25.70
2019-02-18T05:07:45.848Z,34.90
2019-02-18T05:10:51.048Z,29.67
2019-02-18T05:13:56.313Z,28.90
2019-02-18T05:17:01.552Z,29.97
2019-02-18T05:20:06.821Z,26.93
2019-02-18T05:23:11.933Z,29.03
2019-02-18T05:26:18.200Z,29.67
2019-02-18T05:29:23.349Z,28.30
2019-02-18T05:32:28.543Z,26.53
2019-02-18T05:35:33.651Z,26.47
2019-02-18T05:38:38.818Z,26.17
2019-02-18T05:41:43.945Z,24.43
2019-02-18T05:44:49.150Z,27.83
2019-02-18T05:47:54.375Z,23.97
2019-02-18T05:50:59.556Z,30.57
2019-02-18T05:54:04.641Z,21.10
2019-02-18T05:57:09.848Z,25.23
2019-02-18T06:00:15.581Z,23.60
2019-02-18T06:03:20.680Z,27.73
2019-02-18T06:06:25.865Z,22.20
2019-02-18T06:09:31.115Z,26.27
2019-02-18T06:12:36.295Z,24.03
2019-02-18T06:15:41.553Z,28.93
2019-02-18T06:18:46.684Z,26.60
2019-02-18T06:21:59.040Z,26.73
2019-02-18T06:25:04.191Z,29.47
2019-02-18T06:28:09.390Z,23.53
2019-02-18T06:31:14.497Z,26.40
2019-02-18T06:34:19.774Z,27.43
2019-02-18T06:37:24.876Z,27.77
2019-02-18T06:40:30.069Z,20.87
2019-02-18T06:43:35.293Z,24.13
2019-02-18T06:46:59.370Z,23.10
2019-02-18T06:50:05.012Z,24.37
2019-02-18T06:53:10.190Z,24.70
2019-02-18T06:56:17.450Z,25.83
2019-02-18T06:59:29.443Z,25.97
2019-02-18T07:02:38.835Z,26.93
2019-02-18T07:06:04.089Z,40.10
2019-02-18T07:09:51.229Z,43.97
2019-02-18T07:12:54.141Z,26.80
2019-02-18T07:15:59.322Z,32.77
2019-02-18T07:19:04.464Z,38.17
2019-02-18T07:22:09.591Z,26.30
2019-02-18T07:25:14.836Z,25.07
2019-02-18T07:28:20.183Z,22.00
2019-02-18T07:31:25.356Z,29.37
2019-02-18T07:34:30.529Z,27.83
2019-02-18T07:37:35.686Z,26.73
2019-02-18T07:40:40.931Z,29.37
2019-02-18T07:43:46.139Z,32.23
2019-02-18T07:46:51.337Z,30.13
2019-02-18T07:49:56.538Z,29.37
2019-02-18T07:53:01.803Z,35.00
2019-02-18T07:56:07.083Z,29.70
2019-02-18T07:59:12.205Z,33.20
2019-02-18T08:02:17.386Z,32.30
2019-02-18T08:05:22.529Z,31.37
2019-02-18T08:08:27.718Z,37.83
2019-02-18T08:11:32.815Z,33.57
2019-02-18T08:14:37.971Z,29.77
2019-02-18T08:17:43.141Z,30.27
2019-02-18T08:20:48.364Z,29.63
2019-02-18T08:24:00.166Z,28.43
2019-02-18T08:27:00.510Z,33.93
2019-02-18T08:30:06.435Z,34.30
2019-02-18T08:33:11.641Z,33.70
2019-02-18T08:36:16.765Z,41.90
2019-02-18T08:39:21.926Z,39.23
2019-02-18T08:42:27.041Z,34.83
2019-02-18T08:45:32.210Z,29.37
2019-02-18T08:48:37.388Z,40.03
2019-02-18T08:51:42.497Z,43.37
2019-02-18T08:54:56.199Z,40.53
2019-02-18T08:57:54.639Z,38.27
2019-02-18T09:01:02.576Z,38.50
2019-02-18T09:04:06.772Z,34.50
2019-02-18T09:07:11.995Z,34.17
2019-02-18T09:10:17.139Z,33.00
2019-02-18T09:13:22.278Z,32.23
2019-02-18T09:16:27.487Z,34.87
2019-02-18T09:19:32.600Z,30.03
2019-02-18T09:22:57.986Z,39.57
2019-02-18T09:26:04.198Z,34.00
2019-02-18T09:29:11.788Z,37.23
2019-02-18T09:32:16.889Z,35.80
2019-02-18T09:35:22.122Z,35.83
2019-02-18T09:38:27.235Z,37.23
2019-02-18T09:41:32.430Z,37.13
2019-02-18T09:44:37.583Z,35.30
2019-02-18T09:47:42.702Z,35.27
2019-02-18T09:50:47.827Z,36.27
2019-02-18T09:53:52.958Z,36.90
2019-02-18T09:56:58.176Z,36.60
2019-02-18T10:00:03.457Z,39.03
2019-02-18T10:03:08.862Z,36.27
2019-02-18T10:06:14.076Z,34.63
2019-02-18T10:09:19.163Z,34.93
2019-02-18T10:12:24.280Z,37.10
2019-02-18T10:15:29.451Z,36.77
2019-02-18T10:18:34.670Z,34.60
2019-02-18T10:21:39.840Z,35.03
2019-02-18T10:24:50.663Z,34.87
2019-02-18T10:27:51.913Z,32.80
2019-02-18T10:30:57.160Z,31.63
2019-02-18T10:34:02.263Z,32.40
2019-02-18T10:37:07.444Z,32.80
2019-02-18T10:40:12.735Z,34.57
2019-02-18T10:43:17.923Z,36.30
2019-02-18T10:46:23.029Z,33.90
2019-02-18T10:49:28.279Z,31.07
2019-02-18T10:52:33.481Z,31.20
2019-02-18T10:55:38.589Z,28.53
2019-02-18T10:58:44.827Z,29.03
2019-02-18T11:01:50.019Z,27.97
2019-02-18T11:04:55.174Z,29.43
2019-02-18T11:08:00.442Z,28.63
2019-02-18T11:11:05.534Z,27.43
2019-02-18T11:14:10.685Z,29.43
2019-02-18T11:17:16.148Z,27.50
2019-02-18T11:20:21.243Z,28.27
2019-02-18T11:23:26.457Z,28.77
2019-02-18T11:26:31.627Z,29.17
2019-02-18T11:29:36.845Z,29.90
2019-02-18T11:32:41.967Z,28.97
2019-02-18T11:35:47.163Z,30.50
2019-02-18T11:38:53.598Z,29.13
2019-02-18T11:41:58.845Z,27.50
2019-02-18T11:45:04.180Z,27.87
2019-02-18T11:48:09.408Z,27.93
2019-02-18T11:51:14.564Z,27.37
2019-02-18T11:54:19.775Z,28.23
2019-02-18T11:57:24.918Z,26.50
2019-02-18T12:00:30.082Z,26.73
2019-02-18T12:03:35.228Z,29.43
2019-02-18T12:06:40.368Z,28.07
2019-02-18T12:09:45.566Z,26.13
2019-02-18T12:12:50.639Z,26.47
2019-02-18T12:15:55.811Z,27.87
2019-02-18T12:19:01.117Z,27.07
2019-02-18T12:22:06.350Z,27.57
2019-02-18T12:25:11.883Z,25.37
2019-02-18T12:28:17.465Z,25.13
2019-02-18T12:31:22.627Z,26.60
2019-02-18T12:34:27.872Z,25.30
2019-02-18T12:37:33.222Z,25.83
2019-02-18T12:40:38.332Z,24.97
2019-02-18T12:43:43.614Z,24.87
2019-02-18T12:46:48.836Z,24.40
2019-02-18T12:49:54.118Z,24.90
2019-02-18T12:52:59.344Z,24.73
2019-02-18T12:56:04.478Z,25.93
2019-02-18T12:59:09.724Z,26.90
2019-02-18T13:02:14.985Z,25.93
2019-02-18T13:05:20.185Z,26.03
2019-02-18T13:08:25.359Z,27.10
2019-02-18T13:11:30.538Z,26.47
2019-02-18T13:14:35.716Z,27.60
2019-02-18T13:17:42.739Z,25.17
2019-02-18T13:20:47.806Z,25.50
2019-02-18T13:23:54.768Z,26.00
2019-02-18T13:26:59.881Z,27.83
2019-02-18T13:30:08.382Z,29.10
2019-02-18T13:33:13.667Z,27.50
2019-02-18T13:36:18.843Z,29.73
2019-02-18T13:39:23.972Z,27.90
2019-02-18T13:42:29.173Z,25.33
2019-02-18T13:45:34.388Z,23.83
2019-02-18T13:48:39.618Z,25.30
2019-02-18T13:51:44.803Z,27.60
2019-02-18T13:54:50.371Z,23.53
2019-02-18T13:57:55.487Z,24.17
2019-02-18T14:01:00.662Z,23.03
2019-02-18T14:04:05.797Z,22.13
2019-02-18T14:07:10.924Z,22.83
2019-02-18T14:10:16.100Z,22.03
2019-02-18T14:13:21.243Z,21.57
2019-02-18T14:16:26.416Z,20.93
2019-02-18T14:19:31.498Z,20.50
2019-02-18T14:22:36.666Z,19.50
2019-02-18T14:25:41.842Z,18.67
2019-02-18T14:28:47.008Z,18.63
2019-02-18T14:31:52.234Z,17.83
2019-02-18T14:34:58.098Z,17.77
2019-02-18T14:38:03.241Z,19.57
2019-02-18T14:41:08.703Z,16.93
2019-02-18T14:44:14.275Z,17.13
2019-02-18T14:47:19.394Z,17.10
2019-02-18T14:50:24.576Z,16.97
2019-02-18T14:53:29.763Z,17.60
2019-02-18T14:56:34.830Z,15.80
2019-02-18T14:59:40.020Z,14.97
2019-02-18T15:02:45.247Z,14.93
2019-02-18T15:05:51.280Z,15.63
2019-02-18T15:08:56.451Z,15.30
2019-02-18T15:12:01.644Z,15.07
2019-02-18T15:15:07.186Z,14.97
2019-02-18T15:18:12.395Z,13.77
2019-02-18T15:21:17.541Z,15.43
2019-02-18T15:24:23.354Z,14.67
2019-02-18T15:27:28.509Z,14.87
2019-02-18T15:30:33.703Z,14.93
2019-02-18T15:33:38.838Z,14.90
2019-02-18T15:36:44.013Z,14.70
2019-02-18T15:39:49.201Z,15.03
2019-02-18T15:42:54.425Z,14.07
2019-02-18T15:45:59.549Z,13.93
2019-02-18T15:49:04.696Z,14.50
2019-02-18T15:52:09.901Z,13.93
2019-02-18T15:55:15.181Z,14.73
2019-02-18T15:58:20.338Z,14.97
2019-02-18T16:01:28.596Z,17.23
2019-02-18T16:04:34.080Z,17.37
2019-02-18T16:07:39.231Z,15.93
2019-02-18T16:10:44.385Z,17.77
2019-02-18T16:13:49.506Z,15.97
2019-02-18T16:16:54.693Z,14.90
2019-02-18T16:20:00.314Z,14.10
2019-02-18T16:23:05.420Z,15.37
2019-02-18T16:26:10.602Z,13.57
2019-02-18T16:29:15.814Z,19.20
2019-02-18T16:32:21.029Z,16.67
2019-02-18T16:35:26.244Z,18.50
2019-02-18T16:38:31.516Z,14.53
2019-02-18T16:41:36.640Z,15.30
2019-02-18T16:44:41.855Z,18.50
2019-02-18T16:47:47.046Z,19.50
2019-02-18T16:50:52.207Z,22.93
2019-02-18T16:53:57.584Z,23.33
2019-02-18T16:57:02.710Z,23.60
2019-02-18T17:00:17.206Z,30.77
2019-02-18T17:03:22.453Z,24.80
2019-02-18T17:06:27.646Z,22.47
2019-02-18T17:09:32.884Z,20.23
2019-02-18T17:12:38.043Z,18.73
2019-02-18T17:15:43.509Z,16.27
2019-02-18T17:18:48.680Z,16.70
2019-02-18T17:21:53.792Z,16.07
2019-02-18T17:24:59.171Z,16.93
2019-02-18T17:28:04.371Z,17.53
2019-02-18T17:31:09.554Z,16.93
2019-02-18T17:34:14.698Z,19.83
2019-02-18T17:37:19.958Z,19.03
2019-02-18T17:40:25.485Z,24.23
2019-02-18T17:43:31.634Z,25.90
2019-02-18T17:46:36.850Z,24.87
2019-02-18T17:49:42.012Z,30.83
2019-02-18T17:52:47.457Z,28.00
2019-02-18T17:55:52.686Z,29.90
2019-02-18T17:58:57.834Z,27.47
2019-02-18T18:02:03.053Z,21.30
2019-02-18T18:05:09.106Z,24.50
2019-02-18T18:08:14.344Z,29.73
2019-02-18T18:11:19.612Z,27.37
2019-02-18T18:14:24.964Z,27.20
2019-02-18T18:17:30.315Z,29.03
2019-02-18T18:20:35.512Z,26.17
2019-02-18T18:23:40.637Z,26.13
2019-02-18T18:26:45.785Z,23.03
2019-02-18T18:29:50.989Z,24.30
2019-02-18T18:32:56.185Z,23.37
2019-02-18T18:36:01.418Z,27.57
2019-02-18T18:39:06.998Z,25.07
2019-02-18T18:42:12.832Z,25.80
2019-02-18T18:45:20.246Z,26.37
2019-02-18T18:48:25.455Z,24.63
2019-02-18T18:51:30.640Z,24.37
2019-02-18T18:54:35.850Z,21.57
2019-02-18T18:57:41.006Z,18.83
2019-02-18T19:00:46.197Z,15.83
2019-02-18T19:03:51.496Z,18.80
2019-02-18T19:06:56.816Z,27.70
2019-02-18T19:10:02.013Z,26.57
2019-02-18T19:13:07.262Z,27.23
2019-02-18T19:16:12.767Z,28.27
2019-02-18T19:19:17.936Z,29.60
2019-02-18T19:22:23.151Z,34.00
2019-02-18T19:25:28.298Z,32.83
2019-02-18T19:28:33.543Z,30.07
2019-02-18T19:31:38.700Z,27.50
2019-02-18T19:34:43.922Z,36.27
2019-02-18T19:37:49.209Z,44.17
2019-02-18T19:40:54.531Z,28.23
2019-02-18T19:43:59.710Z,26.17
2019-02-18T19:47:04.960Z,20.57
2019-02-18T19:50:10.249Z,25.30
2019-02-18T19:53:15.475Z,19.97
2019-02-18T19:56:21.135Z,20.70
2019-02-18T19:59:26.398Z,23.73
2019-02-18T20:02:31.630Z,23.20
2019-02-18T20:05:36.993Z,24.03
2019-02-18T20:08:42.150Z,20.70
2019-02-18T20:11:47.476Z,20.50
2019-02-18T20:14:52.638Z,18.03
2019-02-18T20:17:57.859Z,21.93
2019-02-18T20:21:03.051Z,21.73
2019-02-18T20:24:09.323Z,20.63
2019-02-18T20:27:17.265Z,18.10
2019-02-18T20:30:22.444Z,20.63
2019-02-18T20:33:27.578Z,17.57
2019-02-18T20:36:32.718Z,17.27
2019-02-18T20:39:37.926Z,18.33
2019-02-18T20:42:43.131Z,16.97
2019-02-18T20:45:48.273Z,17.50
2019-02-18T20:48:54.530Z,21.17
2019-02-18T20:51:59.659Z,16.60
2019-02-18T20:55:05.252Z,18.37
2019-02-18T20:58:12.019Z,24.17
2019-02-18T21:01:17.291Z,25.43
2019-02-18T21:04:22.493Z,33.20
2019-02-18T21:07:27.647Z,36.03
2019-02-18T21:10:32.826Z,38.37
2019-02-18T21:13:37.999Z,27.97
2019-02-18T21:16:43.212Z,28.03
2019-02-18T21:19:48.402Z,27.20
2019-02-18T21:22:53.744Z,28.30
2019-02-18T21:25:58.846Z,29.93
2019-02-18T21:29:03.978Z,31.70
2019-02-18T21:32:09.117Z,29.17
2019-02-18T21:35:14.382Z,30.07
2019-02-18T21:38:19.839Z,30.63
2019-02-18T21:41:25.054Z,29.20
2019-02-18T21:44:30.260Z,25.33
2019-02-18T21:47:35.393Z,23.70
2019-02-18T21:50:40.611Z,26.53
2019-02-18T21:53:45.747Z,22.50
2019-02-18T21:56:50.882Z,20.50
2019-02-18T21:59:56.031Z,21.53
2019-02-18T22:03:01.166Z,20.80
2019-02-18T22:06:06.477Z,21.17
2019-02-18T22:09:11.585Z,22.13
2019-02-18T22:12:16.767Z,21.77
2019-02-18T22:15:21.949Z,20.57
2019-02-18T22:18:27.201Z,21.10
2019-02-18T22:21:32.364Z,20.07
2019-02-18T22:24:37.620Z,20.07
2019-02-18T22:27:43.207Z,21.43
2019-02-18T22:30:48.388Z,20.20
2019-02-18T22:33:53.528Z,21.30
2019-02-18T22:36:59.119Z,19.13
2019-02-18T22:40:04.666Z,21.60
2019-02-18T22:43:09.814Z,19.50
2019-02-18T22:46:15.497Z,21.40
2019-02-18T22:49:20.706Z,20.53
2019-02-18T22:52:25.885Z,22.20
2019-02-18T22:55:31.294Z,20.03
2019-02-18T22:58:36.589Z,18.60
2019-02-18T23:01:42.583Z,17.57
2019-02-18T23:04:47.907Z,17.30
2019-02-18T23:07:53.064Z,17.77
2019-02-18T23:10:58.225Z,17.70
2019-02-18T23:14:03.380Z,17.97
2019-02-18T23:17:08.512Z,18.43
2019-02-18T23:20:13.760Z,16.60
2019-02-18T23:23:18.876Z,16.70
2019-02-18T23:26:24.060Z,16.17
2019-02-18T23:29:29.304Z,17.20
2019-02-18T23:32:34.454Z,18.53
2019-02-18T23:35:39.666Z,17.23
2019-02-18T23:38:44.781Z,17.63
2019-02-18T23:41:49.950Z,16.77
2019-02-18T23:44:59.249Z,15.53
2019-02-18T23:48:03.407Z,15.03
2019-02-18T23:51:08.622Z,15.87
2019-02-18T23:54:13.723Z,17.13
2019-02-18T23:57:18.914Z,17.40
